Time;durP1;ratioP1;P1;durP2;ratioP2;P2;SDS_P1;SDS_P2;PMS_P1;PMS_P2;Temp;Humidity;BMP_temperature;BMP_pressure;BME280_temperature;BME280_humidity;BME280_pressure;Samples;Min_cycle;Max_cycle;Signal;HPM_P1;HPM_P2
2021/08/12 00:00:45;;;;;;;;;12.25;9.00;;;;;24.49;50.27;101407.81;5075041;28;45442;-55
2021/08/12 00:03:10;;;;;;;;;11.00;9.25;;;;;24.49;50.46;101413.13;5056329;28;47385;-55
2021/08/12 00:05:36;;;;;;;;;14.25;13.25;;;;;24.48;50.16;101403.47;5076319;28;45405;-54
2021/08/12 00:08:01;;;;;;;;;14.75;11.75;;;;;24.48;50.50;101400.81;5064981;28;45460;-55
2021/08/12 00:10:27;;;;;;;;;11.50;9.25;;;;;24.48;50.16;101411.41;5056687;28;45296;-55
2021/08/12 00:12:52;;;;;;;;;12.00;10.50;;;;;24.47;50.76;101396.47;5055974;28;46266;-54
2021/08/12 00:15:17;;;;;;;;;11.50;11.00;;;;;24.47;50.60;101391.16;5068712;28;45387;-54
2021/08/12 00:17:43;;;;;;;;;11.75;11.25;;;;;24.47;50.50;101391.16;5076678;28;45385;-51
2021/08/12 00:20:09;;;;;;;;;9.75;9.75;;;;;24.46;50.60;101392.97;5072822;28;45662;-59
2021/08/12 00:22:34;;;;;;;;;12.75;11.75;;;;;24.47;49.96;101401.75;5056058;28;45444;-53
2021/08/12 00:25:00;;;;;;;;;13.25;10.75;;;;;24.47;49.63;101388.50;5071742;28;45385;-58
2021/08/12 00:27:25;;;;;;;;;13.75;12.00;;;;;24.46;50.20;101394.75;5076596;28;45475;-56
2021/08/12 00:29:50;;;;;;;;;10.50;10.00;;;;;24.46;49.97;101389.47;5061763;28;45573;-55
2021/08/12 00:32:16;;;;;;;;;12.00;12.00;;;;;24.46;50.00;101386.81;5056107;28;46279;-53
2021/08/12 00:34:41;;;;;;;;;11.50;9.75;;;;;24.46;49.98;101389.47;5068347;28;45422;-53
2021/08/12 00:37:07;;;;;;;;;10.25;10.25;;;;;24.44;50.68;101381.63;5076461;28;45244;-53
2021/08/12 00:39:32;;;;;;;;;11.00;10.50;;;;;24.45;50.46;101383.31;5074921;28;45276;-58
2021/08/12 00:41:58;;;;;;;;;11.00;10.25;;;;;24.45;50.29;101382.47;5075246;28;45424;-49
2021/08/12 00:44:24;;;;;;;;;11.75;10.50;;;;;24.45;50.57;101390.41;5076274;28;45696;-56
2021/08/12 00:46:49;;;;;;;;;14.00;12.75;;;;;24.44;49.92;101386.06;5076437;28;45276;-54
2021/08/12 00:49:14;;;;;;;;;12.50;11.50;;;;;24.44;49.85;101381.63;5072065;28;45730;-57
2021/08/12 00:51:40;;;;;;;;;12.75;11.00;;;;;24.43;50.11;101381.69;5075771;28;46315;-53
2021/08/12 00:54:06;;;;;;;;;10.50;10.50;;;;;24.44;49.92;101381.63;5068491;28;45424;-49
2021/08/12 00:56:31;;;;;;;;;11.50;10.00;;;;;24.43;50.17;101371.09;5059816;28;45279;-54
2021/08/12 00:58:57;;;;;;;;;10.25;10.25;;;;;24.44;50.60;101375.44;5066784;28;45515;-51
2021/08/12 01:01:23;;;;;;;;;9.75;9.75;;;;;24.43;49.95;101364.03;5079114;28;47156;-50
2021/08/12 01:03:48;;;;;;;;;10.00;9.25;;;;;24.42;50.73;101367.63;5079175;28;45894;-52
2021/08/12 01:06:22;;;;;;;;;10.25;10.25;;;;;24.44;50.57;101364.84;5079811;28;45433;-56
2021/08/12 01:09:17;;;;;;;;;10.75;9.50;;;;;24.44;50.49;101367.50;5079276;28;45329;-53
2021/08/12 01:11:49;;;;;;;;;13.00;11.50;;;;;24.42;49.98;101367.63;5078081;28;47282;-49
2021/08/12 01:14:22;;;;;;;;;12.25;11.00;;;;;24.43;50.07;101366.66;5069895;28;45249;-51
2021/08/12 01:16:56;;;;;;;;;10.50;8.50;;;;;24.41;50.44;101368.56;5059054;28;45240;-53
2021/08/12 01:19:45;;;;;;;;;14.50;11.75;;;;;24.42;50.40;101366.78;5069229;28;45276;-48
2021/08/12 01:22:13;;;;;;;;;11.75;10.75;;;;;24.41;50.41;101379.16;5059080;28;46257;-52
2021/08/12 01:24:43;;;;;;;;;12.50;10.00;;;;;24.43;50.06;101382.56;5063311;28;45489;-55
2021/08/12 01:27:12;;;;;;;;;12.00;10.00;;;;;24.42;50.27;101374.72;5059105;28;45281;-53
2021/08/12 01:29:51;;;;;;;;;12.00;10.25;;;;;24.42;50.19;101380.88;5059052;28;45568;-55
2021/08/12 01:32:26;;;;;;;;;14.00;13.00;;;;;24.41;50.13;101373.03;5058589;28;45716;-53
2021/08/12 01:34:57;;;;;;;;;10.00;9.00;;;;;24.42;50.03;101369.44;5059876;28;45567;-50
2021/08/12 01:37:26;;;;;;;;;7.50;6.25;;;;;24.41;50.01;101378.31;5063984;28;45334;-53
2021/08/12 01:39:53;;;;;;;;;10.25;10.25;;;;;24.37;49.97;101370.56;5065436;28;45591;-50
2021/08/12 01:42:19;;;;;;;;;13.00;10.50;;;;;24.41;50.62;101370.38;5077750;28;45532;-52
2021/08/12 01:44:46;;;;;;;;;9.75;9.00;;;;;24.41;50.49;101378.31;5079081;28;45766;-56
2021/08/12 01:47:12;;;;;;;;;10.00;10.00;;;;;24.41;50.59;101379.16;5079104;28;45320;-51
2021/08/12 01:49:41;;;;;;;;;12.25;11.25;;;;;24.41;50.51;101389.75;5067475;28;45455;-52
2021/08/12 01:52:07;;;;;;;;;11.00;11.00;;;;;24.37;49.93;101373.22;5072308;28;46587;-54
2021/08/12 01:54:35;;;;;;;;;16.75;11.50;;;;;24.38;50.65;101374.91;5074675;28;45728;-53
2021/08/12 01:57:01;;;;;;;;;11.25;9.25;;;;;24.39;50.70;101376.63;5078751;28;45433;-55
2021/08/12 01:59:28;;;;;;;;;10.50;9.50;;;;;24.39;50.54;101379.25;5077019;28;45406;-55
2021/08/12 02:01:56;;;;;;;;;12.25;10.50;;;;;24.39;50.02;101381.91;5078192;28;45462;-59
2021/08/12 02:04:22;;;;;;;;;10.25;9.25;;;;;24.40;50.41;101382.75;5078360;28;45233;-59
2021/08/12 02:06:50;;;;;;;;;8.75;8.75;;;;;24.39;50.68;101376.63;5077013;28;45376;-57
2021/08/12 02:09:15;;;;;;;;;12.00;12.00;;;;;24.41;50.47;101380.97;5078446;28;45413;-57
2021/08/12 02:11:41;;;;;;;;;10.00;10.00;;;;;24.41;50.09;101380.97;5078399;28;45406;-52
2021/08/12 02:14:06;;;;;;;;;13.00;12.50;;;;;24.40;50.45;101374.81;5078302;28;45375;-54
2021/08/12 02:16:33;;;;;;;;;10.00;9.00;;;;;24.39;50.53;101381.91;5078529;28;45891;-61
2021/08/12 02:18:59;;;;;;;;;10.50;10.50;;;;;24.41;50.07;101378.31;5078047;28;45485;-50
2021/08/12 02:21:33;;;;;;;;;13.50;11.75;;;;;24.39;50.28;101376.63;5077490;28;46664;-55
2021/08/12 02:24:05;;;;;;;;;13.00;12.00;;;;;24.39;50.60;101366.03;5077844;28;45343;-53
2021/08/12 02:26:40;;;;;;;;;15.00;12.50;;;;;24.41;50.19;101362.44;5078520;28;45358;-53
2021/08/12 02:29:07;;;;;;;;;14.25;12.00;;;;;24.39;50.14;101360.72;5065880;28;45249;-53
2021/08/12 02:31:34;;;;;;;;;13.00;9.75;;;;;24.38;50.16;101359.00;5057924;28;46694;-54
2021/08/12 02:34:00;;;;;;;;;13.25;12.25;;;;;24.40;50.60;101366.84;5061233;28;45865;-55
2021/08/12 02:36:29;;;;;;;;;13.25;11.75;;;;;24.39;50.48;101373.97;5060083;28;45396;-53
2021/08/12 02:38:56;;;;;;;;;13.25;12.25;;;;;24.38;50.10;101369.63;5058176;28;45356;-54
2021/08/12 02:41:23;;;;;;;;;13.00;9.50;;;;;24.38;50.21;101374.91;5057705;28;46553;-56
2021/08/12 02:43:50;;;;;;;;;18.75;12.00;;;;;24.39;50.30;101373.97;5069722;28;45323;-55
2021/08/12 02:46:18;;;;;;;;;13.25;12.25;;;;;24.38;50.20;101376.69;5058074;28;45364;-55
2021/08/12 02:48:45;;;;;;;;;15.00;14.00;;;;;24.38;50.71;101374.91;5062509;28;45399;-49
2021/08/12 02:51:12;;;;;;;;;16.25;14.25;;;;;24.38;50.08;101377.56;5077479;28;45513;-50
2021/08/12 02:53:38;;;;;;;;;12.75;12.75;;;;;24.37;50.11;101373.22;5077973;28;45484;-50
2021/08/12 02:56:06;;;;;;;;;12.75;12.00;;;;;24.38;50.48;101366.09;5077874;28;45315;-49
2021/08/12 02:58:35;;;;;;;;;14.75;13.50;;;;;24.36;50.15;101370.66;5068908;28;45240;-48
2021/08/12 03:01:02;;;;;;;;;16.00;13.00;;;;;24.37;50.35;101367.91;5057319;28;46384;-50
2021/08/12 03:03:29;;;;;;;;;15.00;15.00;;;;;24.39;50.53;101367.81;5057059;28;46107;-52
2021/08/12 03:05:57;;;;;;;;;15.75;15.75;;;;;24.37;50.72;101375.84;5057575;28;45425;-53
2021/08/12 03:08:25;;;;;;;;;15.50;14.25;;;;;24.37;50.40;101362.63;5057597;28;45662;-52
2021/08/12 03:10:53;;;;;;;;;13.75;13.75;;;;;24.38;50.04;101363.44;5074973;28;47578;-51
2021/08/12 03:13:18;;;;;;;;;13.75;12.25;;;;;24.38;50.43;101363.44;5057709;28;45400;-48
2021/08/12 03:15:45;;;;;;;;;13.75;13.75;;;;;24.38;50.22;101355.50;5070026;28;45488;-52
2021/08/12 03:18:11;;;;;;;;;15.50;15.00;;;;;24.38;49.86;101363.44;5077569;28;45325;-50
2021/08/12 03:20:42;;;;;;;;;13.50;12.00;;;;;24.38;50.48;101361.66;5077430;28;46603;-53
2021/08/12 03:23:09;;;;;;;;;14.25;13.00;;;;;24.36;50.48;101354.78;5075471;28;45504;-51
2021/08/12 03:25:35;;;;;;;;;16.75;13.25;;;;;24.38;50.36;101363.44;5059603;28;45435;-53
2021/08/12 03:28:00;;;;;;;;;16.50;15.75;;;;;24.36;50.37;101362.72;5076769;28;45500;-53
2021/08/12 03:30:26;;;;;;;;;18.50;16.00;;;;;24.36;50.10;101368.84;5074888;28;45400;-57
2021/08/12 03:32:51;;;;;;;;;14.50;14.50;;;;;24.36;50.36;101371.50;5077045;28;45411;-53
2021/08/12 03:35:17;;;;;;;;;15.00;14.00;;;;;24.35;50.06;101364.50;5057321;28;45308;-56
2021/08/12 03:37:43;;;;;;;;;16.50;15.00;;;;;24.35;49.81;101366.31;5065385;28;45691;-58
2021/08/12 03:40:09;;;;;;;;;12.50;12.50;;;;;24.35;50.38;101363.66;5056900;28;46793;-56
2021/08/12 03:42:34;;;;;;;;;12.25;12.25;;;;;24.34;49.88;101362.78;5058578;28;45520;-55
2021/08/12 03:45:00;;;;;;;;;15.75;13.50;;;;;24.34;49.86;101362.78;5077263;28;45198;-54
2021/08/12 03:47:25;;;;;;;;;14.50;14.00;;;;;24.32;50.11;101354.09;5077258;28;45260;-52
2021/08/12 03:49:50;;;;;;;;;15.75;12.00;;;;;24.33;50.10;101355.78;5065815;28;45505;-56
2021/08/12 03:52:16;;;;;;;;;12.50;12.50;;;;;24.34;50.43;101352.19;5038429;28;45794;-52
2021/08/12 03:54:41;;;;;;;;;14.75;13.25;;;;;24.32;50.50;101351.44;5056966;28;45463;-51
2021/08/12 03:57:07;;;;;;;;;16.25;14.00;;;;;24.33;50.07;101353.16;5072887;28;45590;-53
2021/08/12 03:59:33;;;;;;;;;12.50;12.50;;;;;24.33;49.88;101354.97;5076844;28;45378;-56
2021/08/12 04:01:59;;;;;;;;;14.75;12.50;;;;;24.32;50.32;101354.09;5076153;28;45549;-52
2021/08/12 04:04:24;;;;;;;;;15.50;14.00;;;;;24.33;50.18;101350.50;5076940;28;45307;-51
2021/08/12 04:06:50;;;;;;;;;14.50;14.50;;;;;24.31;49.93;101344.44;5077010;28;45320;-54
2021/08/12 04:09:15;;;;;;;;;13.75;12.50;;;;;24.34;50.47;101346.06;5076238;28;45537;-53
2021/08/12 04:11:40;;;;;;;;;14.00;13.00;;;;;24.33;50.33;101344.38;5077007;28;45210;-53
2021/08/12 04:14:06;;;;;;;;;13.75;12.00;;;;;24.32;50.49;101343.50;5076430;28;45227;-55
2021/08/12 04:16:31;;;;;;;;;15.25;13.00;;;;;24.33;50.23;101355.78;5058343;28;45391;-55
2021/08/12 04:18:56;;;;;;;;;13.25;13.25;;;;;24.33;50.50;101347.84;5076202;28;45379;-58
2021/08/12 04:21:22;;;;;;;;;12.00;11.75;;;;;24.33;50.43;101345.19;5076432;28;45345;-60
2021/08/12 04:23:47;;;;;;;;;18.00;12.00;;;;;24.33;50.37;101345.19;5063405;28;45395;-50
2021/08/12 04:26:13;;;;;;;;;14.00;12.50;;;;;24.32;49.88;101338.19;5056893;28;45232;-49
2021/08/12 04:28:38;;;;;;;;;12.75;11.75;;;;;24.31;50.11;101336.50;5055151;28;46308;-47
2021/08/12 04:31:04;;;;;;;;;14.00;13.00;;;;;24.31;50.27;101335.66;5055925;28;45170;-54
2021/08/12 04:33:31;;;;;;;;;13.00;12.00;;;;;24.33;50.27;101341.72;5057460;28;45375;-51
2021/08/12 04:35:56;;;;;;;;;11.25;10.00;;;;;24.31;49.87;101331.19;5076592;28;45629;-56
2021/08/12 04:38:22;;;;;;;;;9.25;9.25;;;;;24.32;50.02;101332.06;5074487;28;45308;-48
2021/08/12 04:40:47;;;;;;;;;12.25;11.75;;;;;24.32;50.07;101335.56;5059068;28;45422;-54
2021/08/12 04:43:13;;;;;;;;;11.00;10.50;;;;;24.31;50.19;101333.84;5056570;28;45345;-55
2021/08/12 04:45:38;;;;;;;;;12.50;10.00;;;;;24.32;50.15;101332.06;5076466;28;45563;-51
2021/08/12 04:48:04;;;;;;;;;12.25;12.25;;;;;24.30;50.10;101326.88;5075788;28;45439;-51
2021/08/12 04:50:30;;;;;;;;;12.50;12.50;;;;;24.31;50.42;101336.50;5056014;28;45728;-53
2021/08/12 04:52:56;;;;;;;;;11.50;11.50;;;;;24.29;49.97;101332.25;5062780;28;45334;-48
2021/08/12 04:55:21;;;;;;;;;10.75;10.00;;;;;24.31;50.44;101336.50;5061055;28;45522;-52
2021/08/12 04:57:47;;;;;;;;;11.00;10.75;;;;;24.29;50.42;101335.75;5057240;28;45596;-49
2021/08/12 05:00:13;;;;;;;;;13.50;12.00;;;;;24.31;50.01;101330.34;5055767;28;45508;-51
2021/08/12 05:02:38;;;;;;;;;13.00;12.25;;;;;24.30;50.45;101336.59;5056020;28;45335;-48
2021/08/12 05:05:04;;;;;;;;;13.00;12.00;;;;;24.29;50.27;101338.41;5056207;28;45321;-49
2021/08/12 05:07:29;;;;;;;;;11.50;11.25;;;;;24.31;50.01;101330.34;5055683;28;46143;-50
2021/08/12 05:09:55;;;;;;;;;14.00;13.00;;;;;24.31;49.86;101339.13;5055652;28;45232;-52
2021/08/12 05:12:21;;;;;;;;;11.00;9.75;;;;;24.30;49.97;101333.94;5055726;28;45343;-53
2021/08/12 05:14:50;;;;;;;;;11.25;10.00;;;;;24.30;50.35;101334.81;5055860;28;45637;-51
2021/08/12 05:17:15;;;;;;;;;9.75;9.75;;;;;24.29;49.77;101332.25;5056168;28;46402;-50
2021/08/12 05:19:43;;;;;;;;;14.00;10.00;;;;;24.28;49.90;101338.50;5055342;28;45435;-50
2021/08/12 05:22:08;;;;;;;;;13.25;11.75;;;;;24.28;50.10;101336.72;5055746;28;45359;-51
2021/08/12 05:24:34;;;;;;;;;13.00;12.00;;;;;24.26;50.21;101333.31;5037647;28;45582;-58
2021/08/12 05:26:59;;;;;;;;;12.25;11.00;;;;;24.25;49.38;101331.59;5055171;28;45474;-49
2021/08/12 05:29:24;;;;;;;;;11.75;10.50;;;;;24.23;49.81;101333.50;5056372;28;45550;-53
2021/08/12 05:31:51;;;;;;;;;13.25;11.00;;;;;24.22;49.86;101339.72;5073199;28;45272;-52
2021/08/12 05:34:16;;;;;;;;;9.25;9.25;;;;;24.21;49.76;101352.13;5076230;28;45443;-50
2021/08/12 05:36:42;;;;;;;;;12.75;10.75;;;;;24.22;49.86;101347.69;5075568;28;45796;-50
2021/08/12 05:39:07;;;;;;;;;12.50;12.00;;;;;24.23;50.00;101349.38;5066940;28;46143;-54
2021/08/12 05:41:32;;;;;;;;;11.50;11.00;;;;;24.21;49.74;101340.69;5056930;28;45329;-52
2021/08/12 05:43:58;;;;;;;;;10.50;10.00;;;;;24.20;49.36;101349.56;5058628;28;45237;-52
2021/08/12 05:46:23;;;;;;;;;15.00;12.00;;;;;24.21;49.46;101351.28;5058509;28;50703;-49
2021/08/12 05:48:48;;;;;;;;;10.00;8.50;;;;;24.20;50.10;101346.91;5046031;28;45359;-54
2021/08/12 05:51:14;;;;;;;;;10.25;8.75;;;;;24.20;49.81;101341.63;5078612;28;54460;-56
2021/08/12 05:53:39;;;;;;;;;15.00;12.00;;;;;24.18;49.52;101339.09;5077070;28;45552;-58
2021/08/12 05:56:04;;;;;;;;;13.25;9.00;;;;;24.20;49.87;101338.97;5078861;28;45427;-57
2021/08/12 05:58:37;;;;;;;;;8.50;8.50;;;;;24.18;49.54;101343.53;5076947;28;45302;-52
2021/08/12 06:01:03;;;;;;;;;9.25;9.25;;;;;24.16;49.50;101337.47;5053489;28;45341;-58
2021/08/12 06:03:28;;;;;;;;;9.75;9.75;;;;;24.16;50.09;101337.47;5058707;28;45549;-55
2021/08/12 06:05:56;;;;;;;;;12.25;10.75;;;;;24.16;49.88;101342.78;5058191;28;51679;-56
2021/08/12 06:08:22;;;;;;;;;11.25;10.25;;;;;24.16;50.10;101358.66;5062461;28;45387;-49
2021/08/12 06:10:47;;;;;;;;;16.50;12.50;;;;;24.13;49.28;101359.72;5058691;28;45225;-54
2021/08/12 06:13:13;;;;;;;;;10.50;10.50;;;;;24.13;49.86;101359.72;5058373;28;45225;-55
2021/08/12 06:15:39;;;;;;;;;13.25;11.00;;;;;24.10;50.05;101357.25;5039462;28;47367;-56
2021/08/12 06:18:09;;;;;;;;;13.00;12.50;;;;;24.11;49.79;101363.38;5040180;28;45556;-49
2021/08/12 06:20:34;;;;;;;;;14.75;12.00;;;;;24.11;49.56;101363.38;5040240;28;45344;-54
2021/08/12 06:23:05;;;;;;;;;13.25;12.00;;;;;24.08;49.62;101357.38;5071485;28;45440;-49
2021/08/12 06:25:31;;;;;;;;;11.00;11.00;;;;;24.09;49.43;101353.75;5078382;28;47528;-55
2021/08/12 06:27:56;;;;;;;;;11.50;10.25;;;;;24.08;49.55;101357.38;5060169;28;45391;-62
2021/08/12 06:30:22;;;;;;;;;13.00;11.25;;;;;24.08;49.73;101360.00;5077679;28;45336;-50
2021/08/12 06:32:47;;;;;;;;;12.25;11.00;;;;;24.08;50.06;101362.66;5052582;28;45514;-60
2021/08/12 06:35:12;;;;;;;;;13.50;13.00;;;;;24.10;49.93;101362.56;5057749;28;46209;-54
2021/08/12 06:37:48;;;;;;;;;10.25;10.25;;;;;24.10;50.15;101359.91;5069545;28;45398;-56
2021/08/12 06:40:16;;;;;;;;;14.00;12.25;;;;;24.12;50.07;101367.75;5058256;28;45507;-61
2021/08/12 06:42:42;;;;;;;;;12.00;10.25;;;;;24.14;50.03;101363.22;5058269;28;46005;-55
2021/08/12 06:45:08;;;;;;;;;12.00;12.00;;;;;24.13;49.58;101359.72;5058682;28;46458;-58
2021/08/12 06:47:37;;;;;;;;;9.50;8.00;;;;;24.15;49.90;101364.91;5058750;28;45521;-60
2021/08/12 06:50:06;;;;;;;;;13.00;13.00;;;;;24.16;49.76;101362.16;5057995;28;45378;-58
2021/08/12 06:52:33;;;;;;;;;11.50;10.25;;;;;24.18;49.84;101370.03;5057483;28;45514;-51
2021/08/12 06:54:59;;;;;;;;;12.25;10.00;;;;;24.18;50.00;101362.91;5057531;28;46574;-55
2021/08/12 06:57:25;;;;;;;;;12.75;11.75;;;;;24.19;49.97;101369.09;5057643;28;45635;-55
2021/08/12 06:59:50;;;;;;;;;12.75;12.00;;;;;24.19;49.87;101377.88;5057921;28;45217;-52
2021/08/12 07:02:15;;;;;;;;;14.50;12.75;;;;;24.21;49.73;101375.97;5057531;28;47808;-53
2021/08/12 07:04:41;;;;;;;;;15.00;12.25;;;;;24.21;49.50;101373.31;5057464;28;46151;-52
2021/08/12 07:07:06;;;;;;;;;13.50;12.00;;;;;24.21;49.28;101367.16;5043481;28;45466;-56
2021/08/12 07:09:31;;;;;;;;;11.75;11.50;;;;;24.21;49.70;101364.50;5076331;28;45450;-59
2021/08/12 07:11:57;;;;;;;;;13.00;12.25;;;;;24.20;49.44;101360.16;5077804;28;45513;-58
2021/08/12 07:14:23;;;;;;;;;12.75;12.25;;;;;24.22;49.61;101352.97;5077733;28;46504;-48
2021/08/12 07:16:48;;;;;;;;;15.00;12.00;;;;;24.22;50.05;101345.91;5077082;28;45495;-55
2021/08/12 07:19:14;;;;;;;;;10.75;10.75;;;;;24.23;50.01;101350.25;5077608;28;45308;-60
2021/08/12 07:21:41;;;;;;;;;16.75;13.75;;;;;24.24;49.99;101353.72;5076294;28;45631;-56
2021/08/12 07:24:06;;;;;;;;;13.75;12.50;;;;;24.23;49.96;101354.69;5039101;28;46399;-55
2021/08/12 07:26:32;;;;;;;;;15.25;14.25;;;;;24.24;49.56;101353.72;5057112;28;45248;-61
2021/08/12 07:28:57;;;;;;;;;13.75;11.50;;;;;24.26;49.44;101353.63;5057252;28;45767;-55
2021/08/12 07:31:22;;;;;;;;;8.75;5.75;;;;;24.28;49.46;101363.19;5057555;28;45549;-58
2021/08/12 07:33:48;;;;;;;;;15.00;13.25;;;;;24.28;49.74;101357.03;5057935;28;46401;-56
2021/08/12 07:36:13;;;;;;;;;14.00;12.25;;;;;24.27;49.24;101358.84;5056948;28;45308;-60
2021/08/12 07:38:39;;;;;;;;;18.50;14.00;;;;;24.28;49.17;101357.91;5057082;28;45336;-54
2021/08/12 07:41:05;;;;;;;;;11.75;11.50;;;;;24.26;49.60;101349.19;5057109;28;45153;-50
2021/08/12 07:43:30;;;;;;;;;13.75;12.25;;;;;24.27;49.39;101356.19;5056731;28;46548;-58
2021/08/12 07:45:55;;;;;;;;;12.25;12.00;;;;;24.28;49.40;101351.72;5057097;28;45428;-52
2021/08/12 07:48:21;;;;;;;;;15.50;13.25;;;;;24.29;49.12;101356.09;5039075;28;45349;-59
2021/08/12 07:50:47;;;;;;;;;14.00;13.00;;;;;24.28;49.12;101352.59;5056985;28;45331;-58
2021/08/12 07:53:13;;;;;;;;;15.50;12.50;;;;;24.28;49.43;101347.31;5056638;28;46448;-56
2021/08/12 07:55:38;;;;;;;;;13.75;13.00;;;;;24.29;49.49;101356.97;5054192;28;45458;-57
2021/08/12 07:58:04;;;;;;;;;12.50;11.75;;;;;24.30;49.44;101353.38;5056817;28;45325;-55
2021/08/12 08:00:30;;;;;;;;;15.50;14.75;;;;;24.31;49.23;101341.78;5056773;28;45318;-53
2021/08/12 08:02:56;;;;;;;;;13.75;13.00;;;;;24.31;49.28;101341.78;5056333;28;46527;-61
2021/08/12 08:05:23;;;;;;;;;13.75;12.50;;;;;24.31;49.36;101347.09;5056139;28;45371;-57
2021/08/12 08:07:49;;;;;;;;;18.25;14.25;;;;;24.33;49.17;101347.00;5056552;28;45394;-58
2021/08/12 08:10:17;;;;;;;;;13.25;13.25;;;;;24.33;49.35;101344.38;5038789;28;45281;-63
2021/08/12 08:12:43;;;;;;;;;14.00;13.00;;;;;24.34;49.22;101349.56;5056550;28;46679;-62
2021/08/12 08:15:13;;;;;;;;;12.75;11.25;;;;;24.35;49.81;101347.78;5058323;28;45404;-58
2021/08/12 08:17:39;;;;;;;;;16.50;15.00;;;;;24.35;49.73;101345.97;5050743;28;45455;-62
2021/08/12 08:20:07;;;;;;;;;12.00;11.50;;;;;24.37;49.23;101349.38;5073502;28;45535;-59
2021/08/12 08:22:32;;;;;;;;;15.75;13.00;;;;;24.37;49.60;101341.41;5076410;28;46593;-59
2021/08/12 08:24:58;;;;;;;;;15.75;12.00;;;;;24.39;49.71;101344.81;5062584;28;45497;-48
2021/08/12 08:27:23;;;;;;;;;13.00;10.25;;;;;24.37;49.13;101352.00;5056645;28;45340;-59
2021/08/12 08:29:49;;;;;;;;;13.75;13.25;;;;;24.41;49.99;101349.19;5057524;28;45567;-54
2021/08/12 08:32:16;;;;;;;;;14.50;14.25;;;;;24.43;49.41;101344.59;5057060;28;45326;-48
2021/08/12 08:34:42;;;;;;;;;15.25;14.50;;;;;24.43;49.57;101344.59;5056100;28;45379;-54
2021/08/12 08:37:07;;;;;;;;;12.00;12.00;;;;;24.45;49.88;101342.72;5056183;28;45375;-56
2021/08/12 08:39:33;;;;;;;;;13.00;12.00;;;;;24.46;49.80;101344.41;5063434;28;46809;-53
2021/08/12 08:41:59;;;;;;;;;13.00;11.50;;;;;24.46;49.46;101333.81;5057233;28;46071;-49
2021/08/12 08:44:25;;;;;;;;;14.75;12.75;;;;;24.48;49.84;101331.94;5047956;28;46580;-48
2021/08/12 08:46:51;;;;;;;;;13.75;13.25;;;;;24.49;49.36;101345.06;5056131;28;45438;-55
2021/08/12 08:49:21;;;;;;;;;12.75;12.75;;;;;24.47;49.46;101349.63;5064063;28;45753;-51
2021/08/12 08:51:48;;;;;;;;;13.50;11.75;;;;;24.50;49.31;101353.88;5072059;28;46873;-56
2021/08/12 08:54:16;;;;;;;;;19.00;16.00;;;;;24.51;49.87;101347.63;5074016;28;45210;-62
2021/08/12 08:56:42;;;;;;;;;17.00;15.25;;;;;24.52;49.61;101352.00;5064800;28;45411;-63
2021/08/12 08:59:08;;;;;;;;;13.75;12.00;;;;;24.49;50.11;101344.22;5075551;28;45438;-55
2021/08/12 09:01:36;;;;;;;;;19.00;15.75;;;;;24.54;49.54;101355.38;5075868;28;46429;-57
2021/08/12 09:04:02;;;;;;;;;14.75;13.50;;;;;24.53;49.75;101356.31;5057722;28;45305;-65
2021/08/12 09:06:27;;;;;;;;;13.75;13.75;;;;;24.54;49.18;101363.31;5076397;28;45261;-59
2021/08/12 09:08:57;;;;;;;;;17.00;16.00;;;;;24.53;49.24;101364.25;5058139;28;45233;-62
2021/08/12 09:11:24;;;;;;;;;14.00;13.50;;;;;24.53;49.25;101357.19;5075866;28;45327;-63
2021/08/12 09:13:50;;;;;;;;;18.00;13.75;;;;;24.55;49.11;101362.38;5076001;28;45456;-61
2021/08/12 09:16:31;;;;;;;;;15.25;14.00;;;;;24.55;49.50;101367.66;5078612;28;45399;-56
2021/08/12 09:19:20;;;;;;;;;16.00;12.75;;;;;24.56;49.42;101364.06;5079960;28;45573;-55
2021/08/12 09:21:47;;;;;;;;;12.00;12.00;;;;;24.57;48.97;101363.13;5079082;28;45498;-56
2021/08/12 09:24:13;;;;;;;;;13.25;12.75;;;;;24.57;49.64;101363.13;5079414;28;45354;-65
2021/08/12 09:26:40;;;;;;;;;14.50;14.50;;;;;24.58;48.99;101361.34;5061195;28;45415;-60
2021/08/12 09:29:06;;;;;;;;;12.75;12.75;;;;;24.60;49.53;101362.06;5079512;28;45253;-58
2021/08/12 09:31:32;;;;;;;;;16.25;11.75;;;;;24.59;48.96;101363.00;5079262;28;45451;-52
2021/08/12 09:33:57;;;;;;;;;13.25;12.50;;;;;24.59;49.41;101355.94;5079580;28;45319;-56
2021/08/12 09:36:33;;;;;;;;;13.50;11.75;;;;;24.60;48.90;101362.94;5079428;28;45547;-52
2021/08/12 09:39:09;;;;;;;;;17.00;14.00;;;;;24.61;49.05;101356.69;5079791;28;45354;-57
2021/08/12 09:41:45;;;;;;;;;14.50;10.25;;;;;24.62;49.01;101360.19;5078847;28;47273;-51
2021/08/12 09:44:29;;;;;;;;;14.75;13.50;;;;;24.62;48.87;101355.75;5079155;28;45390;-51
2021/08/12 09:46:58;;;;;;;;;15.00;13.25;;;;;24.62;49.45;101355.75;5079297;28;45307;-62
2021/08/12 09:49:25;;;;;;;;;12.50;12.50;;;;;24.63;49.49;101360.09;5079482;28;45559;-57
2021/08/12 09:51:50;;;;;;;;;13.50;12.25;;;;;24.63;49.31;101357.44;5078795;28;45329;-55
2021/08/12 09:54:28;;;;;;;;;12.00;10.50;;;;;24.65;49.33;101357.34;5078928;28;45335;-62
2021/08/12 09:56:54;;;;;;;;;15.00;15.00;;;;;24.66;49.27;101348.44;5078837;28;45482;-59
2021/08/12 09:59:19;;;;;;;;;11.25;10.50;;;;;24.64;49.04;101348.53;5079089;28;45331;-61
2021/08/12 10:01:44;;;;;;;;;13.50;13.00;;;;;24.68;49.64;101349.19;5078603;28;45428;-57
2021/08/12 10:04:27;;;;;;;;;15.00;14.00;;;;;24.68;49.16;101336.81;5078521;28;50851;-57
2021/08/12 10:06:53;;;;;;;;;16.75;14.25;;;;;24.72;49.18;101333.97;5078636;28;45444;-56
2021/08/12 10:09:18;;;;;;;;;17.50;14.50;;;;;24.77;49.54;101331.84;5078888;28;45516;-55
2021/08/12 10:11:44;;;;;;;;;19.75;18.75;;;;;24.79;49.27;101338.78;5078402;28;46622;-58
2021/08/12 10:14:09;;;;;;;;;15.75;14.50;;;;;24.82;49.56;101337.72;5078444;28;45338;-69
2021/08/12 10:16:37;;;;;;;;;28.75;22.25;;;;;24.83;49.71;101334.94;5059924;28;45359;-57
2021/08/12 10:19:10;;;;;;;;;21.25;19.50;;;;;24.87;49.37;101340.91;5079041;28;45248;-49
2021/08/12 10:21:37;;;;;;;;;23.50;19.75;;;;;24.90;49.15;101332.75;5060115;28;46579;-56
2021/08/12 10:24:04;;;;;;;;;23.25;17.00;;;;;24.93;49.14;101332.56;5078624;28;45612;-55
2021/08/12 10:26:32;;;;;;;;;18.25;14.75;;;;;24.97;49.36;101338.50;5077847;28;45342;-52
2021/08/12 10:29:09;;;;;;;;;20.00;15.75;;;;;25.04;49.49;101334.47;5060297;28;45410;-53
2021/08/12 10:31:34;;;;;;;;;15.75;14.25;;;;;25.12;49.31;101332.19;5078206;28;46269;-52
2021/08/12 10:34:03;;;;;;;;;19.00;18.25;;;;;25.17;48.80;101331.88;5078505;28;45437;-53
2021/08/12 10:36:29;;;;;;;;;15.75;14.75;;;;;25.22;49.26;101332.38;5078538;28;45888;-54
2021/08/12 10:38:55;;;;;;;;;15.25;13.25;;;;;25.24;48.70;101324.34;5078542;28;45595;-50
2021/08/12 10:41:22;;;;;;;;;16.75;16.75;;;;;25.24;49.27;101330.47;5078037;28;45479;-52
2021/08/12 10:43:53;;;;;;;;;19.25;16.25;;;;;25.25;48.36;101329.53;5078172;28;45907;-55
2021/08/12 10:46:36;;;;;;;;;19.00;16.25;;;;;25.26;48.97;101325.94;5078213;28;45288;-55
2021/08/12 10:49:28;;;;;;;;;28.50;27.25;;;;;25.28;48.63;101331.13;5060213;28;45213;-59
2021/08/12 10:52:07;;;;;;;;;31.25;27.50;;;;;25.29;48.67;101332.81;5059655;28;48417;-57
2021/08/12 10:54:40;;;;;;;;;37.50;32.50;;;;;25.29;48.62;101325.72;5077884;28;45250;-55
2021/08/12 10:57:18;;;;;;;;;35.75;30.00;;;;;25.31;48.34;101325.63;5077814;28;45481;-61
2021/08/12 10:59:44;;;;;;;;;45.50;34.00;;;;;25.32;48.39;101328.16;5077971;28;45418;-48
2021/08/12 11:02:28;;;;;;;;;43.50;33.25;;;;;25.34;49.00;101329.84;5077736;28;45669;-51
2021/08/12 11:04:55;;;;;;;;;36.75;30.50;;;;;25.34;48.50;101324.53;5077730;28;45342;-51
2021/08/12 11:07:35;;;;;;;;;60.50;46.25;;;;;25.35;48.58;101327.13;5077710;28;45249;-48
2021/08/12 11:10:03;;;;;;;;;55.75;46.50;;;;;25.33;48.35;101313.09;5078354;28;45380;-57